createdAt,value
2018-03-20T00:00:51.873Z,9.60
2018-03-20T00:01:50.757Z,9.40
2018-03-20T00:03:44.119Z,9.40
2018-03-20T00:04:44.081Z,8.70
2018-03-20T00:06:37.119Z,9.00
2018-03-20T00:07:36.943Z,8.50
2018-03-20T00:09:29.993Z,8.70
2018-03-20T00:10:29.777Z,8.90
2018-03-20T00:12:22.666Z,9.00
2018-03-20T00:13:22.623Z,8.10
2018-03-20T00:15:15.526Z,8.90
2018-03-20T00:16:15.484Z,8.60
2018-03-20T00:18:08.562Z,8.60
2018-03-20T00:19:08.308Z,8.10
2018-03-20T00:21:01.815Z,8.40
2018-03-20T00:22:01.664Z,9.20
2018-03-20T00:23:55.117Z,8.90
2018-03-20T00:24:55.015Z,8.10
2018-03-20T00:26:48.396Z,8.50
2018-03-20T00:27:48.341Z,8.70
2018-03-20T00:29:41.937Z,8.40
2018-03-20T00:30:41.688Z,8.40
2018-03-20T00:32:34.582Z,7.70
2018-03-20T00:33:34.560Z,8.50
2018-03-20T00:35:27.431Z,8.10
2018-03-20T00:36:27.385Z,8.40
2018-03-20T00:38:20.470Z,9.50
2018-03-20T00:39:20.220Z,8.70
2018-03-20T00:41:13.648Z,8.00
2018-03-20T00:42:13.561Z,8.50
2018-03-20T00:44:06.945Z,8.30
2018-03-20T00:45:06.910Z,8.20
2018-03-20T00:47:00.289Z,8.50
2018-03-20T00:48:00.253Z,7.80
2018-03-20T00:49:53.901Z,8.70
2018-03-20T00:50:53.595Z,8.40
2018-03-20T00:52:46.958Z,8.30
2018-03-20T00:53:46.919Z,8.60
2018-03-20T00:55:40.307Z,8.10
2018-03-20T00:56:40.265Z,8.20
2018-03-20T00:58:33.341Z,8.50
2018-03-20T00:59:33.084Z,8.60
2018-03-20T01:01:26.174Z,8.70
2018-03-20T01:02:25.972Z,8.30
2018-03-20T01:04:19.320Z,8.70
2018-03-20T01:05:19.285Z,8.60
2018-03-20T01:07:12.651Z,8.10
2018-03-20T01:08:12.601Z,7.90
2018-03-20T01:10:06.014Z,8.00
2018-03-20T01:11:05.945Z,8.10
2018-03-20T01:12:58.817Z,8.50
2018-03-20T01:13:58.794Z,8.70
2018-03-20T01:15:52.731Z,8.30
2018-03-20T01:16:52.107Z,8.80
2018-03-20T01:18:45.194Z,8.60
2018-03-20T01:19:44.978Z,7.70
2018-03-20T01:21:38.324Z,8.00
2018-03-20T01:22:38.288Z,7.60
2018-03-20T01:24:31.198Z,7.40
2018-03-20T01:25:31.160Z,7.10
2018-03-20T01:27:24.640Z,8.40
2018-03-20T01:28:24.493Z,8.00
2018-03-20T01:30:17.350Z,8.30
2018-03-20T01:31:17.313Z,8.30
2018-03-20T01:33:10.192Z,7.60
2018-03-20T01:34:10.165Z,8.20
2018-03-20T01:36:03.542Z,8.10
2018-03-20T01:37:03.491Z,8.20
2018-03-20T01:38:58.063Z,8.40
2018-03-20T01:39:57.834Z,8.40
2018-03-20T01:41:50.891Z,8.80
2018-03-20T01:42:50.681Z,8.50
2018-03-20T01:44:44.038Z,8.20
2018-03-20T01:45:44.010Z,8.20
2018-03-20T01:47:36.884Z,8.10
2018-03-20T01:48:36.869Z,8.30
2018-03-20T01:50:30.225Z,8.50
2018-03-20T01:51:30.191Z,7.60
2018-03-20T01:53:23.569Z,7.60
2018-03-20T01:54:23.524Z,7.50
2018-03-20T01:56:16.411Z,8.40
2018-03-20T01:57:16.389Z,8.10
2018-03-20T01:59:09.922Z,7.50
2018-03-20T02:00:09.712Z,7.80
2018-03-20T02:02:02.602Z,7.90
2018-03-20T02:03:02.568Z,7.90
2018-03-20T02:04:55.913Z,7.80
2018-03-20T02:05:55.901Z,8.20
2018-03-20T02:07:48.790Z,8.30
2018-03-20T02:08:48.728Z,8.10
2018-03-20T02:10:43.186Z,7.70
2018-03-20T02:11:43.064Z,8.30
2018-03-20T02:13:36.418Z,7.60
2018-03-20T02:14:36.393Z,7.50
2018-03-20T02:16:29.272Z,7.80
2018-03-20T02:17:29.249Z,8.10
2018-03-20T02:19:23.692Z,7.90
2018-03-20T02:20:22.068Z,8.10
2018-03-20T02:22:15.649Z,8.60
2018-03-20T02:23:15.402Z,8.40
2018-03-20T02:25:08.389Z,8.30
2018-03-20T02:26:08.243Z,7.90
2018-03-20T02:28:01.130Z,7.90
2018-03-20T02:29:01.094Z,8.50
2018-03-20T02:30:54.136Z,8.20
2018-03-20T02:31:54.510Z,8.00
2018-03-20T02:33:47.304Z,8.50
2018-03-20T02:34:47.277Z,8.30
2018-03-20T02:36:40.958Z,7.40
2018-03-20T02:37:40.816Z,8.60
2018-03-20T02:39:35.187Z,8.40
2018-03-20T02:40:35.154Z,7.90
2018-03-20T02:42:28.521Z,8.10
2018-03-20T02:43:28.484Z,7.80
2018-03-20T02:45:21.894Z,8.60
2018-03-20T02:46:21.823Z,7.70
2018-03-20T02:48:14.945Z,8.50
2018-03-20T02:49:14.660Z,8.00
2018-03-20T02:51:08.194Z,7.80
2018-03-20T02:52:08.618Z,7.70
2018-03-20T02:54:00.893Z,7.90
2018-03-20T02:55:00.863Z,8.00
2018-03-20T02:56:54.353Z,7.60
2018-03-20T02:57:54.171Z,7.90
2018-03-20T02:59:48.108Z,8.30
2018-03-20T03:00:48.067Z,8.20
2018-03-20T03:02:42.482Z,7.90
2018-03-20T03:03:42.437Z,8.50
2018-03-20T03:05:37.257Z,8.30
2018-03-20T03:06:36.768Z,8.60
2018-03-20T03:08:30.373Z,7.90
2018-03-20T03:09:30.082Z,8.30
2018-03-20T03:11:23.572Z,8.50
2018-03-20T03:12:23.462Z,8.30
2018-03-20T03:14:17.812Z,8.40
2018-03-20T03:15:17.756Z,8.00
2018-03-20T03:17:11.147Z,8.90
2018-03-20T03:18:11.081Z,8.40
2018-03-20T03:20:04.473Z,8.50
2018-03-20T03:21:04.420Z,8.90
2018-03-20T03:23:00.418Z,7.90
2018-03-20T03:24:00.328Z,8.10
2018-03-20T03:25:53.686Z,7.90
2018-03-20T03:26:53.627Z,8.50
2018-03-20T03:28:46.738Z,8.40
2018-03-20T03:29:46.490Z,8.20
2018-03-20T03:31:40.003Z,8.60
2018-03-20T03:32:39.811Z,8.30
2018-03-20T03:34:32.707Z,8.60
2018-03-20T03:35:32.810Z,8.90
2018-03-20T03:37:26.052Z,14.00
2018-03-20T03:38:26.007Z,15.80
2018-03-20T03:40:19.370Z,13.40
2018-03-20T03:41:19.327Z,12.20
2018-03-20T03:43:12.205Z,14.00
2018-03-20T03:44:12.156Z,12.50
2018-03-20T03:46:05.810Z,11.90
2018-03-20T03:47:05.509Z,11.40
2018-03-20T03:48:58.890Z,9.70
2018-03-20T03:49:58.821Z,10.40
2018-03-20T03:51:51.899Z,10.10
2018-03-20T03:52:52.261Z,9.30
2018-03-20T03:54:46.260Z,9.30
2018-03-20T03:55:46.027Z,9.00
2018-03-20T03:57:38.912Z,8.80
2018-03-20T03:58:38.876Z,9.60
2018-03-20T04:00:33.228Z,9.40
2018-03-20T04:01:33.195Z,9.70
2018-03-20T04:03:26.569Z,10.20
2018-03-20T04:04:26.522Z,11.10
2018-03-20T04:06:19.598Z,9.50
2018-03-20T04:07:19.398Z,9.30
2018-03-20T04:09:12.327Z,8.90
2018-03-20T04:10:12.786Z,9.50
2018-03-20T04:12:05.734Z,9.20
2018-03-20T04:13:05.564Z,9.00
2018-03-20T04:14:58.938Z,9.70
2018-03-20T04:15:58.877Z,10.40
2018-03-20T04:17:51.773Z,9.00
2018-03-20T04:18:51.732Z,9.20
2018-03-20T04:20:44.619Z,10.70
2018-03-20T04:21:44.571Z,11.80
2018-03-20T04:23:37.933Z,10.00
2018-03-20T04:24:37.923Z,9.90
2018-03-20T04:26:31.283Z,9.40
2018-03-20T04:27:31.828Z,8.90
2018-03-20T04:29:24.622Z,9.20
2018-03-20T04:30:24.578Z,10.10
2018-03-20T04:32:17.484Z,9.60
2018-03-20T04:33:17.440Z,9.90
2018-03-20T04:35:10.938Z,10.80
2018-03-20T04:36:10.787Z,10.20
2018-03-20T04:38:03.786Z,9.80
2018-03-20T04:39:03.616Z,10.10
2018-03-20T04:40:58.025Z,10.20
2018-03-20T04:41:57.957Z,10.10
2018-03-20T04:43:50.885Z,9.70
2018-03-20T04:44:50.805Z,9.50
2018-03-20T04:46:43.805Z,10.10
2018-03-20T04:47:43.645Z,9.60
2018-03-20T04:49:37.176Z,10.20
2018-03-20T04:50:36.999Z,10.00
2018-03-20T04:52:30.396Z,10.10
2018-03-20T04:53:30.930Z,10.40
2018-03-20T04:55:23.517Z,9.50
2018-03-20T04:56:23.490Z,9.70
2018-03-20T04:58:16.514Z,10.50
2018-03-20T04:59:16.360Z,9.70
2018-03-20T05:01:09.329Z,10.20
2018-03-20T05:02:09.748Z,10.10
2018-03-20T05:04:02.216Z,10.70
2018-03-20T05:05:01.994Z,10.60
2018-03-20T05:06:55.423Z,9.90
2018-03-20T05:07:55.346Z,11.10
2018-03-20T05:09:51.338Z,10.90
2018-03-20T05:10:49.697Z,10.60
2018-03-20T05:12:42.669Z,11.20
2018-03-20T05:13:42.531Z,10.20
2018-03-20T05:15:36.988Z,10.40
2018-03-20T05:16:36.886Z,10.40
2018-03-20T05:18:30.849Z,10.00
2018-03-20T05:19:30.810Z,10.30
2018-03-20T05:21:23.655Z,9.50
2018-03-20T05:22:23.587Z,10.20
2018-03-20T05:24:16.963Z,9.90
2018-03-20T05:25:16.922Z,9.90
2018-03-20T05:27:10.322Z,9.40
2018-03-20T05:28:10.268Z,9.30
2018-03-20T05:30:03.644Z,10.40
2018-03-20T05:31:03.604Z,9.40
2018-03-20T05:32:57.180Z,10.00
2018-03-20T05:33:56.944Z,10.60
2018-03-20T05:35:50.684Z,9.90
2018-03-20T05:36:50.330Z,10.00
2018-03-20T05:38:44.241Z,10.30
2018-03-20T05:39:44.187Z,10.10
2018-03-20T05:41:37.798Z,11.00
2018-03-20T05:42:37.556Z,10.40
2018-03-20T05:44:30.989Z,10.20
2018-03-20T05:45:30.871Z,10.80
2018-03-20T05:47:24.326Z,10.30
2018-03-20T05:48:24.193Z,9.90
2018-03-20T05:50:17.586Z,9.40
2018-03-20T05:51:17.035Z,9.70
2018-03-20T05:53:09.936Z,9.20
2018-03-20T05:54:09.895Z,10.00
2018-03-20T05:56:03.347Z,10.40
2018-03-20T05:57:02.742Z,9.90
2018-03-20T05:58:55.704Z,10.40
2018-03-20T05:59:55.583Z,9.70
2018-03-20T06:01:48.509Z,9.70
2018-03-20T06:02:48.432Z,10.20
2018-03-20T06:04:41.392Z,10.30
2018-03-20T06:05:41.867Z,10.20
2018-03-20T06:07:34.686Z,10.50
2018-03-20T06:08:34.625Z,10.00
2018-03-20T06:10:27.507Z,11.00
2018-03-20T06:11:27.470Z,11.50
2018-03-20T06:13:24.968Z,11.40
2018-03-20T06:14:20.815Z,10.50
2018-03-20T06:16:13.789Z,10.30
2018-03-20T06:17:13.673Z,10.30
2018-03-20T06:19:06.593Z,9.80
2018-03-20T06:20:06.502Z,9.40
2018-03-20T06:21:59.402Z,10.30
2018-03-20T06:22:59.357Z,10.20
2018-03-20T06:24:52.237Z,10.20
2018-03-20T06:25:52.202Z,10.80
2018-03-20T06:27:45.087Z,11.40
2018-03-20T06:28:45.079Z,10.70
2018-03-20T06:30:38.423Z,11.10
2018-03-20T06:31:38.388Z,10.20
2018-03-20T06:33:31.272Z,10.70
2018-03-20T06:34:31.234Z,11.40
2018-03-20T06:36:24.151Z,10.40
2018-03-20T06:37:24.099Z,10.80
2018-03-20T06:39:16.959Z,11.50
2018-03-20T06:40:16.935Z,10.90
2018-03-20T06:42:10.317Z,10.60
2018-03-20T06:43:10.284Z,10.60
2018-03-20T06:45:03.653Z,11.10
2018-03-20T06:46:03.617Z,11.40
2018-03-20T06:47:56.493Z,10.80
2018-03-20T06:48:56.458Z,10.70
2018-03-20T06:50:49.345Z,10.70
2018-03-20T06:51:49.310Z,10.50
2018-03-20T06:53:42.196Z,10.20
2018-03-20T06:54:42.152Z,10.60
2018-03-20T06:56:35.043Z,11.50
2018-03-20T06:57:35.007Z,11.60
2018-03-20T06:59:28.430Z,11.50
2018-03-20T07:00:28.334Z,11.50
2018-03-20T07:02:21.713Z,11.60
2018-03-20T07:03:21.681Z,11.50
2018-03-20T07:05:14.565Z,11.90
2018-03-20T07:06:14.586Z,11.80
2018-03-20T07:08:07.410Z,11.30
2018-03-20T07:09:07.374Z,11.70
2018-03-20T07:11:00.744Z,11.40
2018-03-20T07:12:00.728Z,12.10
2018-03-20T07:13:54.080Z,12.00
2018-03-20T07:14:54.052Z,12.30
2018-03-20T07:16:46.945Z,12.30
2018-03-20T07:17:46.888Z,13.10
2018-03-20T07:19:39.775Z,12.80
2018-03-20T07:20:39.734Z,13.60
2018-03-20T07:22:32.627Z,12.60
2018-03-20T07:23:32.583Z,12.90
2018-03-20T07:25:25.973Z,13.60
2018-03-20T07:26:25.923Z,13.30
2018-03-20T07:28:18.878Z,13.80
2018-03-20T07:29:18.773Z,14.10
2018-03-20T07:31:11.736Z,13.80
2018-03-20T07:32:11.625Z,13.50
2018-03-20T07:34:04.515Z,13.40
2018-03-20T07:35:04.473Z,13.80
2018-03-20T07:36:57.347Z,14.40
2018-03-20T07:37:57.312Z,13.80
2018-03-20T07:39:50.233Z,13.60
2018-03-20T07:40:50.150Z,12.70
2018-03-20T07:42:43.040Z,14.30
2018-03-20T07:43:43.003Z,13.90
2018-03-20T07:45:35.914Z,14.20
2018-03-20T07:46:35.850Z,14.20
2018-03-20T07:48:28.736Z,14.30
2018-03-20T07:49:28.703Z,14.90
2018-03-20T07:51:22.072Z,14.00
2018-03-20T07:52:22.034Z,14.10
2018-03-20T07:54:14.917Z,13.50
2018-03-20T07:55:14.880Z,14.00
2018-03-20T07:57:07.784Z,13.70
2018-03-20T07:58:07.729Z,13.80
2018-03-20T08:00:00.608Z,14.20
2018-03-20T08:01:00.573Z,14.80
2018-03-20T08:02:53.965Z,14.60
2018-03-20T08:03:53.919Z,13.90
2018-03-20T08:05:47.355Z,14.00
2018-03-20T08:06:47.254Z,13.30
2018-03-20T08:08:40.630Z,14.40
2018-03-20T08:09:40.594Z,14.30
2018-03-20T08:11:33.479Z,14.00
2018-03-20T08:12:33.440Z,13.50
2018-03-20T08:14:26.327Z,14.20
2018-03-20T08:15:26.287Z,14.40
2018-03-20T08:17:19.172Z,14.20
2018-03-20T08:18:19.136Z,14.00
2018-03-20T08:20:12.512Z,14.50
2018-03-20T08:21:12.475Z,14.60
2018-03-20T08:23:05.354Z,16.00
2018-03-20T08:24:05.321Z,15.70
2018-03-20T08:25:58.220Z,16.60
2018-03-20T08:26:58.176Z,17.20
2018-03-20T08:28:51.061Z,17.30
2018-03-20T08:29:51.025Z,17.20
2018-03-20T08:31:44.405Z,18.50
2018-03-20T08:32:44.358Z,18.50
2018-03-20T08:34:37.258Z,19.10
2018-03-20T08:35:37.212Z,18.30
2018-03-20T08:37:30.097Z,21.90
2018-03-20T08:38:30.059Z,23.50
2018-03-20T08:40:22.947Z,24.90
2018-03-20T08:41:22.914Z,24.20
2018-03-20T08:43:15.793Z,23.90
2018-03-20T08:44:15.761Z,23.40
2018-03-20T08:46:08.649Z,24.70
2018-03-20T08:47:08.615Z,25.00
2018-03-20T08:49:02.036Z,24.20
2018-03-20T08:50:02.062Z,24.40
2018-03-20T08:51:54.893Z,25.50
2018-03-20T08:52:54.871Z,24.90
2018-03-20T08:54:47.737Z,25.70
2018-03-20T08:55:47.705Z,25.00
2018-03-20T08:57:40.597Z,25.00
2018-03-20T08:58:40.553Z,25.60
2018-03-20T09:00:33.931Z,25.40
2018-03-20T09:01:33.896Z,24.20
2018-03-20T09:03:26.790Z,24.90
2018-03-20T09:04:26.748Z,25.50
2018-03-20T09:06:19.649Z,25.50
2018-03-20T09:07:19.595Z,25.40
2018-03-20T09:09:12.489Z,26.10
2018-03-20T09:10:12.442Z,25.00
2018-03-20T09:12:05.826Z,26.90
2018-03-20T09:13:05.787Z,26.20
2018-03-20T09:14:58.665Z,26.70
2018-03-20T09:15:58.636Z,27.20
2018-03-20T09:17:52.011Z,32.60
2018-03-20T09:18:51.971Z,35.80
2018-03-20T09:20:44.865Z,33.20
2018-03-20T09:21:44.828Z,33.00
2018-03-20T09:23:37.715Z,28.60
2018-03-20T09:24:37.694Z,28.30
2018-03-20T09:26:31.057Z,28.30
2018-03-20T09:27:31.022Z,27.10
2018-03-20T09:29:23.932Z,27.70
2018-03-20T09:30:23.882Z,28.20
2018-03-20T09:32:16.776Z,28.20
2018-03-20T09:33:16.735Z,27.70
2018-03-20T09:35:10.114Z,28.90
2018-03-20T09:36:10.077Z,27.80
2018-03-20T09:38:02.976Z,29.10
2018-03-20T09:39:02.959Z,28.70
2018-03-20T09:40:55.810Z,29.60
2018-03-20T09:41:55.773Z,29.30
2018-03-20T09:43:49.156Z,29.50
2018-03-20T09:44:49.118Z,30.20
2018-03-20T09:46:42.008Z,31.30
2018-03-20T09:47:41.974Z,30.30
2018-03-20T09:49:34.864Z,30.00
2018-03-20T09:50:34.833Z,29.60
2018-03-20T09:52:27.720Z,27.80
2018-03-20T09:53:27.686Z,27.50
2018-03-20T09:55:20.567Z,26.90
2018-03-20T09:56:20.536Z,29.10
2018-03-20T09:58:13.922Z,28.40
2018-03-20T09:59:13.883Z,28.10
2018-03-20T10:01:06.774Z,32.40
2018-03-20T10:02:06.739Z,32.10
2018-03-20T10:03:59.634Z,28.50
2018-03-20T10:04:59.595Z,26.80
2018-03-20T10:06:52.497Z,27.90
2018-03-20T10:07:52.453Z,27.30
2018-03-20T10:09:45.835Z,26.80
2018-03-20T10:10:45.805Z,26.00
2018-03-20T10:12:38.682Z,25.80
2018-03-20T10:13:38.652Z,25.30
2018-03-20T10:15:31.546Z,24.50
2018-03-20T10:16:31.515Z,25.70
2018-03-20T10:18:24.407Z,25.40
2018-03-20T10:19:24.379Z,25.30
2018-03-20T10:21:17.262Z,24.80
2018-03-20T10:22:17.230Z,24.90
2018-03-20T10:24:10.612Z,23.90
2018-03-20T10:25:10.581Z,24.20
2018-03-20T10:27:03.469Z,25.00
2018-03-20T10:28:03.430Z,22.80
2018-03-20T10:29:56.327Z,21.40
2018-03-20T10:30:56.291Z,22.30
2018-03-20T10:32:49.179Z,22.30
2018-03-20T10:33:49.145Z,22.60
2018-03-20T10:35:42.036Z,20.80
2018-03-20T10:36:42.007Z,19.60
2018-03-20T10:38:34.890Z,20.70
2018-03-20T10:39:34.858Z,19.90
2018-03-20T10:41:27.754Z,19.80
2018-03-20T10:42:27.718Z,21.50
2018-03-20T10:44:21.118Z,18.50
2018-03-20T10:45:21.066Z,18.70
2018-03-20T10:47:13.971Z,19.60
2018-03-20T10:48:13.943Z,17.70
2018-03-20T10:50:06.828Z,17.10
2018-03-20T10:51:06.793Z,16.40
2018-03-20T10:52:59.686Z,17.80
2018-03-20T10:53:59.655Z,16.80
2018-03-20T10:55:52.537Z,15.80
2018-03-20T10:56:52.512Z,15.30
2018-03-20T10:58:45.400Z,16.20
2018-03-20T10:59:45.364Z,15.00
2018-03-20T11:01:38.276Z,15.90
2018-03-20T11:02:38.229Z,15.10
2018-03-20T11:04:31.107Z,14.30
2018-03-20T11:05:31.100Z,13.00
2018-03-20T11:07:23.988Z,13.00
2018-03-20T11:08:23.957Z,13.50
2018-03-20T11:10:16.855Z,12.50
2018-03-20T11:11:16.817Z,12.70
2018-03-20T11:13:09.716Z,12.10
2018-03-20T11:14:09.679Z,11.50
2018-03-20T11:16:02.575Z,12.60
2018-03-20T11:17:02.553Z,12.10
2018-03-20T11:18:55.928Z,12.60
2018-03-20T11:19:55.894Z,12.20
2018-03-20T11:21:48.792Z,12.30
2018-03-20T11:22:48.759Z,11.60
2018-03-20T11:24:41.690Z,11.30
2018-03-20T11:25:41.614Z,10.90
2018-03-20T11:27:34.999Z,10.70
2018-03-20T11:28:34.965Z,10.20
2018-03-20T11:30:27.853Z,9.70
2018-03-20T11:31:27.823Z,9.70
2018-03-20T11:33:20.709Z,9.90
2018-03-20T11:34:20.679Z,10.20
2018-03-20T11:36:13.569Z,10.20
2018-03-20T11:37:13.534Z,10.10
2018-03-20T11:39:06.431Z,10.10
2018-03-20T11:40:06.388Z,10.40
2018-03-20T11:41:59.281Z,10.30
2018-03-20T11:42:59.257Z,10.00
2018-03-20T11:44:52.143Z,10.80
2018-03-20T11:45:52.111Z,10.30
2018-03-20T11:47:45.568Z,10.20
2018-03-20T11:48:44.977Z,9.40
2018-03-20T11:50:37.861Z,9.20
2018-03-20T11:51:37.829Z,9.30
2018-03-20T11:53:30.718Z,8.70
2018-03-20T11:54:30.687Z,8.10
2018-03-20T11:56:23.577Z,7.10
2018-03-20T11:57:23.541Z,7.10
2018-03-20T11:59:16.430Z,6.80
2018-03-20T12:00:16.399Z,7.00
2018-03-20T12:02:09.319Z,7.10
2018-03-20T12:03:09.250Z,6.80
2018-03-20T12:05:02.145Z,6.40
2018-03-20T12:06:02.115Z,5.90
2018-03-20T12:07:55.046Z,5.90
2018-03-20T12:08:55.004Z,6.30
2018-03-20T12:10:48.385Z,5.70
2018-03-20T12:11:48.349Z,6.70
2018-03-20T12:13:41.257Z,5.30
2018-03-20T12:14:41.210Z,5.80
2018-03-20T12:16:34.094Z,5.70
2018-03-20T12:17:34.076Z,5.70
2018-03-20T12:19:26.962Z,5.30
2018-03-20T12:20:26.923Z,5.10
2018-03-20T12:22:19.830Z,4.90
2018-03-20T12:23:19.782Z,4.90
2018-03-20T12:25:12.673Z,4.70
2018-03-20T12:26:12.640Z,4.40
2018-03-20T12:28:05.539Z,4.00
2018-03-20T12:29:05.491Z,3.80
2018-03-20T12:30:58.385Z,2.80
2018-03-20T12:31:58.385Z,2.90
2018-03-20T12:33:51.257Z,3.10
2018-03-20T12:34:51.221Z,3.20
2018-03-20T12:36:44.117Z,3.40
2018-03-20T12:37:44.109Z,3.20
2018-03-20T12:39:36.966Z,3.10
2018-03-20T12:40:36.926Z,3.10
2018-03-20T12:42:29.825Z,5.80
2018-03-20T12:43:29.793Z,4.20
2018-03-20T12:45:22.685Z,2.90
2018-03-20T12:46:22.642Z,3.20
2018-03-20T12:48:15.530Z,2.70
2018-03-20T12:49:15.500Z,2.70
2018-03-20T12:51:08.385Z,3.20
2018-03-20T12:52:08.352Z,3.00
2018-03-20T12:54:01.246Z,2.70
2018-03-20T12:55:01.234Z,2.80
2018-03-20T12:56:54.601Z,2.90
2018-03-20T12:57:54.558Z,2.80
2018-03-20T12:59:47.452Z,2.60
2018-03-20T13:00:47.415Z,2.60
2018-03-20T13:02:40.302Z,3.20
2018-03-20T13:03:40.272Z,2.60
2018-03-20T13:05:33.161Z,2.90
2018-03-20T13:06:33.117Z,2.70
2018-03-20T13:08:26.506Z,2.70
2018-03-20T13:09:26.473Z,2.60
2018-03-20T13:11:19.362Z,2.80
2018-03-20T13:12:19.328Z,2.40
2018-03-20T13:14:12.224Z,2.80
2018-03-20T13:15:12.189Z,2.50
2018-03-20T13:17:05.079Z,2.60
2018-03-20T13:18:05.043Z,2.30
2018-03-20T13:19:58.450Z,2.40
2018-03-20T13:20:58.399Z,2.40
2018-03-20T13:22:51.286Z,2.20
2018-03-20T13:23:51.263Z,1.90
2018-03-20T13:25:44.255Z,2.30
2018-03-20T13:26:44.139Z,1.90
2018-03-20T13:28:38.536Z,1.90
2018-03-20T13:29:38.492Z,1.60
2018-03-20T13:31:31.382Z,2.00
2018-03-20T13:32:31.352Z,1.70
2018-03-20T13:34:24.253Z,2.00
2018-03-20T13:35:24.207Z,2.00
2018-03-20T13:37:17.588Z,2.00
2018-03-20T13:38:17.557Z,1.80
2018-03-20T13:40:10.452Z,2.00
2018-03-20T13:41:10.413Z,1.90
2018-03-20T13:43:03.317Z,2.00
2018-03-20T13:44:03.273Z,2.10
2018-03-20T13:45:56.162Z,1.80
2018-03-20T13:46:56.131Z,2.20
2018-03-20T13:48:49.022Z,1.70
2018-03-20T13:49:48.989Z,1.90
2018-03-20T13:51:41.881Z,1.90
2018-03-20T13:52:41.858Z,2.10
2018-03-20T13:54:34.740Z,1.80
2018-03-20T13:55:34.708Z,1.90
2018-03-20T13:57:27.598Z,1.90
2018-03-20T13:58:27.561Z,2.00
2018-03-20T14:00:20.460Z,2.10
2018-03-20T14:01:20.423Z,1.80
2018-03-20T14:03:13.320Z,2.00
2018-03-20T14:04:13.278Z,1.90
2018-03-20T14:06:06.176Z,2.00
2018-03-20T14:07:06.141Z,1.90
2018-03-20T14:08:59.040Z,1.90
2018-03-20T14:09:59.006Z,2.40
2018-03-20T14:11:51.894Z,1.90
2018-03-20T14:12:51.862Z,1.60
2018-03-20T14:14:44.772Z,2.10
2018-03-20T14:15:44.720Z,1.80
2018-03-20T14:17:37.690Z,1.60
2018-03-20T14:18:37.577Z,1.80
2018-03-20T14:20:30.475Z,1.80
2018-03-20T14:21:30.453Z,1.80
2018-03-20T14:23:23.382Z,1.50
2018-03-20T14:24:23.303Z,1.70
2018-03-20T14:26:16.193Z,1.40
2018-03-20T14:27:16.171Z,1.50
2018-03-20T14:29:09.577Z,1.70
2018-03-20T14:30:09.512Z,2.00
2018-03-20T14:32:02.405Z,1.70
2018-03-20T14:33:02.370Z,1.70
2018-03-20T14:34:55.284Z,2.10
2018-03-20T14:35:55.229Z,1.70
2018-03-20T14:37:48.141Z,1.70
2018-03-20T14:38:48.110Z,1.80
2018-03-20T14:40:41.002Z,1.80
2018-03-20T14:41:40.962Z,1.80
2018-03-20T14:43:33.888Z,1.60
2018-03-20T14:44:33.822Z,1.50
2018-03-20T14:46:26.714Z,1.60
2018-03-20T14:47:26.682Z,1.60
2018-03-20T14:49:20.136Z,2.00
2018-03-20T14:50:20.049Z,2.00
2018-03-20T14:52:12.942Z,1.60
2018-03-20T14:53:12.911Z,1.70
2018-03-20T14:55:05.802Z,1.60
2018-03-20T14:56:05.773Z,1.80
2018-03-20T14:57:58.664Z,1.80
2018-03-20T14:58:58.634Z,1.60
2018-03-20T15:00:52.022Z,2.10
2018-03-20T15:01:52.000Z,1.90
2018-03-20T15:03:44.880Z,1.60
2018-03-20T15:04:44.850Z,2.10
2018-03-20T15:06:37.747Z,1.90
2018-03-20T15:07:37.719Z,1.50
2018-03-20T15:09:30.606Z,1.50
2018-03-20T15:10:30.578Z,1.30
2018-03-20T15:12:23.508Z,1.30
2018-03-20T15:13:23.435Z,1.50
2018-03-20T15:15:16.828Z,1.70
2018-03-20T15:16:16.787Z,1.50
2018-03-20T15:18:10.172Z,1.50
2018-03-20T15:19:10.170Z,1.50
2018-03-20T15:21:03.037Z,1.40
2018-03-20T15:22:02.992Z,1.70
2018-03-20T15:23:55.895Z,1.40
2018-03-20T15:24:55.854Z,1.60
2018-03-20T15:26:48.752Z,1.90
2018-03-20T15:27:48.722Z,2.00
2018-03-20T15:29:41.622Z,1.40
2018-03-20T15:30:41.581Z,1.60
2018-03-20T15:32:34.993Z,1.70
2018-03-20T15:33:34.964Z,1.90
2018-03-20T15:35:27.852Z,1.80
2018-03-20T15:36:27.819Z,2.00
2018-03-20T15:38:20.708Z,1.70
2018-03-20T15:39:20.676Z,1.40
2018-03-20T15:41:13.568Z,1.50
2018-03-20T15:42:13.536Z,1.40
2018-03-20T15:44:06.427Z,1.90
2018-03-20T15:45:06.406Z,1.80
2018-03-20T15:46:59.779Z,1.60
2018-03-20T15:47:59.746Z,1.90
2018-03-20T15:49:52.635Z,1.70
2018-03-20T15:50:52.617Z,1.60
2018-03-20T15:52:46.066Z,1.70
2018-03-20T15:53:45.466Z,1.60
2018-03-20T15:55:38.361Z,1.50
2018-03-20T15:56:38.319Z,1.40
2018-03-20T15:58:31.227Z,1.50
2018-03-20T15:59:31.177Z,1.50
2018-03-20T16:01:24.106Z,1.40
2018-03-20T16:02:24.045Z,1.50
2018-03-20T16:04:17.430Z,1.60
2018-03-20T16:05:17.382Z,1.40
2018-03-20T16:07:10.851Z,1.50
2018-03-20T16:08:10.244Z,1.50
2018-03-20T16:10:03.132Z,1.50
2018-03-20T16:11:03.099Z,1.50
2018-03-20T16:12:55.995Z,1.70
2018-03-20T16:13:55.961Z,1.80
2018-03-20T16:15:48.852Z,2.00
2018-03-20T16:16:48.843Z,2.30
2018-03-20T16:18:42.199Z,2.10
2018-03-20T16:19:42.161Z,2.00
2018-03-20T16:21:35.550Z,2.30
2018-03-20T16:22:35.512Z,2.30
2018-03-20T16:24:28.405Z,1.80
2018-03-20T16:25:28.386Z,2.30
2018-03-20T16:27:21.275Z,2.10
2018-03-20T16:28:21.236Z,2.20
2018-03-20T16:30:14.120Z,1.90
2018-03-20T16:31:14.090Z,2.10
2018-03-20T16:33:06.983Z,1.60
2018-03-20T16:34:06.945Z,1.70
2018-03-20T16:35:59.832Z,1.50
2018-03-20T16:36:59.802Z,1.50
2018-03-20T16:38:52.689Z,1.50
2018-03-20T16:39:52.650Z,1.50
2018-03-20T16:41:45.546Z,1.40
2018-03-20T16:42:45.517Z,1.40
2018-03-20T16:44:38.403Z,1.40
2018-03-20T16:45:38.372Z,1.30
2018-03-20T16:47:31.279Z,1.60
2018-03-20T16:48:31.230Z,1.60
2018-03-20T16:50:24.609Z,1.20
2018-03-20T16:51:24.582Z,1.70
2018-03-20T16:53:17.962Z,1.70
2018-03-20T16:54:17.929Z,1.70
2018-03-20T16:56:11.390Z,1.60
2018-03-20T16:57:10.787Z,1.50
2018-03-20T16:59:03.675Z,1.90
2018-03-20T17:00:03.640Z,1.60
2018-03-20T17:01:56.534Z,1.60
2018-03-20T17:02:56.503Z,1.30
2018-03-20T17:04:49.441Z,1.50
2018-03-20T17:05:49.356Z,1.60
2018-03-20T17:07:42.260Z,1.40
2018-03-20T17:08:42.214Z,1.50
2018-03-20T17:10:35.601Z,1.60
2018-03-20T17:11:35.569Z,1.80
2018-03-20T17:13:28.970Z,1.40
2018-03-20T17:14:28.933Z,1.50
2018-03-20T17:16:21.831Z,1.50
2018-03-20T17:17:21.791Z,1.50
2018-03-20T17:19:14.681Z,1.80
2018-03-20T17:20:14.648Z,1.40
2018-03-20T17:22:07.538Z,1.50
2018-03-20T17:23:07.503Z,1.80
2018-03-20T17:25:00.887Z,1.80
2018-03-20T17:26:00.854Z,1.60
2018-03-20T17:27:53.744Z,1.40
2018-03-20T17:28:53.705Z,1.50
2018-03-20T17:30:46.597Z,1.30
2018-03-20T17:31:46.560Z,1.60
2018-03-20T17:33:39.456Z,1.70
2018-03-20T17:34:39.415Z,1.80
2018-03-20T17:36:32.308Z,1.90
2018-03-20T17:37:32.278Z,1.70
2018-03-20T17:39:25.163Z,1.90
2018-03-20T17:40:25.130Z,1.70
2018-03-20T17:42:18.507Z,1.70
2018-03-20T17:43:18.473Z,1.60
2018-03-20T17:45:11.364Z,1.60
2018-03-20T17:46:11.333Z,1.60
2018-03-20T17:48:04.731Z,1.70
2018-03-20T17:49:04.701Z,1.70
2018-03-20T17:50:57.587Z,1.80
2018-03-20T17:51:57.550Z,1.50
2018-03-20T17:53:50.482Z,3.10
2018-03-20T17:54:50.450Z,8.70
2018-03-20T17:56:43.352Z,11.70
2018-03-20T17:57:43.304Z,12.80
2018-03-20T17:59:36.698Z,17.80
2018-03-20T18:00:36.670Z,14.70
2018-03-20T18:02:29.558Z,10.20
2018-03-20T18:03:29.523Z,6.60
2018-03-20T18:05:22.423Z,4.80
2018-03-20T18:06:22.377Z,3.50
2018-03-20T18:08:15.264Z,2.80
2018-03-20T18:09:15.227Z,2.70
2018-03-20T18:11:08.702Z,2.20
2018-03-20T18:12:08.577Z,2.40
2018-03-20T18:14:01.479Z,1.90
2018-03-20T18:15:01.432Z,1.90
2018-03-20T18:16:54.831Z,2.20
2018-03-20T18:17:54.800Z,1.90
2018-03-20T18:19:47.688Z,2.10
2018-03-20T18:20:47.652Z,2.30
2018-03-20T18:22:41.035Z,3.80
2018-03-20T18:23:40.993Z,8.20
2018-03-20T18:25:33.885Z,2.40
2018-03-20T18:26:33.847Z,2.40
2018-03-20T18:28:26.746Z,2.20
2018-03-20T18:29:26.706Z,2.20
2018-03-20T18:31:19.592Z,2.30
2018-03-20T18:32:19.559Z,2.30
2018-03-20T18:34:12.461Z,2.20
2018-03-20T18:35:12.411Z,2.30
2018-03-20T18:37:05.326Z,2.90
2018-03-20T18:38:05.275Z,2.70
2018-03-20T18:39:58.688Z,2.90
2018-03-20T18:40:58.622Z,2.90
2018-03-20T18:42:51.527Z,4.10
2018-03-20T18:43:51.473Z,4.20
2018-03-20T18:45:44.848Z,3.80
2018-03-20T18:46:44.816Z,4.00
2018-03-20T18:48:37.754Z,4.10
2018-03-20T18:49:37.684Z,4.20
2018-03-20T18:51:30.560Z,4.20
2018-03-20T18:52:30.521Z,4.00
2018-03-20T18:54:23.416Z,3.50
2018-03-20T18:55:23.380Z,3.60
2018-03-20T18:57:16.306Z,3.60